Time;durP1;ratioP1;P1;durP2;ratioP2;P2;SDS_P1;SDS_P2;PMS_P1;PMS_P2;Temp;Humidity;BMP_temperature;BMP_pressure;BME280_temperature;BME280_humidity;BME280_pressure;Samples;Min_cycle;Max_cycle;Signal;HPM_P1;HPM_P2
2023/03/06 00:01:00;;;;;;;3.65;0.70;;;2.90;99.90;;;;;;5045954;28;20041;-73
2023/03/06 00:03:26;;;;;;;1.13;0.55;;;2.90;99.90;;;;;;5044775;28;20633;-73
2023/03/06 00:05:55;;;;;;;2.25;0.50;;;2.90;99.90;;;;;;5044429;28;20148;-73
2023/03/06 00:08:22;;;;;;;1.35;0.40;;;2.90;99.90;;;;;;5025347;28;20029;-73
2023/03/06 00:10:47;;;;;;;1.38;0.35;;;2.90;99.90;;;;;;5044222;28;20042;-73
2023/03/06 00:13:14;;;;;;;1.20;0.55;;;3.00;99.90;;;;;;5027522;28;20114;-73
2023/03/06 00:15:40;;;;;;;1.08;0.25;;;3.00;99.90;;;;;;5061295;28;20045;-73
2023/03/06 00:18:06;;;;;;;0.68;0.32;;;3.00;99.90;;;;;;5062007;28;20044;-73
2023/03/06 00:20:33;;;;;;;2.83;0.75;;;3.00;99.90;;;;;;5061206;28;20486;-73
2023/03/06 00:22:59;;;;;;;1.40;0.45;;;3.00;99.90;;;;;;5077890;28;20514;-73
2023/03/06 00:25:25;;;;;;;1.42;0.47;;;3.00;99.90;;;;;;5027652;28;20052;-73
2023/03/06 00:27:51;;;;;;;1.80;0.30;;;3.00;99.90;;;;;;5027635;28;20037;-73
2023/03/06 00:30:19;;;;;;;0.90;0.55;;;3.00;99.90;;;;;;5044782;28;20075;-73
2023/03/06 00:32:46;;;;;;;2.05;0.40;;;3.00;99.90;;;;;;5060139;28;20046;-73
2023/03/06 00:35:12;;;;;;;5.30;0.50;;;3.00;99.90;;;;;;5011888;28;20129;-73
2023/03/06 00:37:39;;;;;;;8.93;0.75;;;3.00;99.90;;;;;;5044379;28;20034;-73
2023/03/06 00:40:10;;;;;;;0.75;0.32;;;3.00;99.90;;;;;;5026598;28;20483;-73
2023/03/06 00:42:36;;;;;;;0.50;0.30;;;3.00;99.90;;;;;;5061255;28;20045;-73
2023/03/06 00:45:02;;;;;;;1.20;0.50;;;3.00;99.90;;;;;;5062036;28;20111;-73
2023/03/06 00:47:27;;;;;;;1.13;0.40;;;3.00;99.90;;;;;;5060402;28;20033;-73
2023/03/06 00:49:53;;;;;;;2.75;0.25;;;3.00;99.90;;;;;;5040460;28;20495;-73
2023/03/06 00:52:20;;;;;;;0.68;0.40;;;3.00;99.90;;;;;;5025581;28;20059;-73
2023/03/06 00:54:45;;;;;;;2.10;0.57;;;3.00;99.90;;;;;;5027114;28;20052;-73
2023/03/06 00:57:11;;;;;;;1.50;0.50;;;3.00;99.90;;;;;;5061431;28;20045;-73
2023/03/06 00:59:36;;;;;;;1.10;0.45;;;3.00;99.90;;;;;;5027401;28;20069;-73
2023/03/06 01:02:03;;;;;;;0.70;0.45;;;3.00;99.90;;;;;;5061542;28;20045;-73
2023/03/06 01:04:29;;;;;;;1.00;0.50;;;3.00;99.90;;;;;;5023763;28;20041;-73
2023/03/06 01:06:54;;;;;;;1.20;0.30;;;3.00;99.90;;;;;;5058094;28;20108;-73
2023/03/06 01:09:20;;;;;;;2.97;1.40;;;3.10;99.90;;;;;;5060741;28;20534;-73
2023/03/06 01:11:46;;;;;;;0.98;0.40;;;3.10;99.90;;;;;;5061067;28;20450;-73
2023/03/06 01:14:12;;;;;;;2.80;0.70;;;3.10;99.90;;;;;;5077526;28;20057;-73
2023/03/06 01:16:37;;;;;;;2.05;0.70;;;3.10;99.90;;;;;;5026986;28;20072;-73
2023/03/06 01:19:03;;;;;;;1.27;0.38;;;3.10;99.90;;;;;;5027334;28;20041;-73
2023/03/06 01:21:29;;;;;;;1.75;0.57;;;3.00;99.90;;;;;;5023163;28;20087;-73
2023/03/06 01:23:54;;;;;;;1.02;0.50;;;3.10;99.90;;;;;;5061077;28;20041;-73
2023/03/06 01:26:20;;;;;;;1.55;0.57;;;3.10;99.90;;;;;;5059955;28;20406;-73
2023/03/06 01:28:46;;;;;;;4.40;0.38;;;3.10;99.90;;;;;;5058961;28;20077;-73
2023/03/06 01:31:11;;;;;;;1.83;0.60;;;3.10;99.90;;;;;;5060840;28;20041;-73
2023/03/06 01:33:37;;;;;;;2.55;0.50;;;3.10;99.90;;;;;;5059767;28;20053;-73
2023/03/06 01:36:08;;;;;;;4.22;0.63;;;3.10;99.90;;;;;;5059327;28;20491;-73
2023/03/06 01:38:34;;;;;;;0.45;0.35;;;3.10;99.90;;;;;;5038117;28;20092;-73
2023/03/06 01:41:02;;;;;;;1.17;0.45;;;3.10;99.90;;;;;;5025657;28;20531;-73
2023/03/06 01:43:29;;;;;;;1.17;0.30;;;3.20;99.90;;;;;;5027328;28;20529;-73
2023/03/06 01:46:31;;;;;;;1.38;0.50;;;3.20;99.90;;;;;;5044510;28;20442;-73
2023/03/06 01:49:03;;;;;;;1.40;0.70;;;3.20;99.90;;;;;;5026119;28;20041;-73
2023/03/06 01:51:34;;;;;;;0.85;0.35;;;3.20;99.90;;;;;;5025203;28;20045;-73
2023/03/06 01:54:03;;;;;;;0.75;0.30;;;3.20;99.90;;;;;;5007888;28;20407;-73
2023/03/06 01:56:28;;;;;;;0.93;0.40;;;3.20;99.90;;;;;;5007495;28;20045;-73
2023/03/06 01:58:54;;;;;;;1.58;0.73;;;3.20;99.90;;;;;;5026605;28;20049;-73
2023/03/06 02:01:20;;;;;;;2.03;0.50;;;3.20;99.90;;;;;;5060565;28;20045;-74
2023/03/06 02:03:48;;;;;;;1.23;0.60;;;3.30;99.90;;;;;;5056576;28;20033;-73
2023/03/06 02:06:18;;;;;;;0.70;0.45;;;3.30;99.90;;;;;;5024625;28;20579;-73
2023/03/06 02:08:46;;;;;;;3.10;0.80;;;3.30;99.90;;;;;;5044419;28;20041;-74
2023/03/06 02:11:18;;;;;;;1.35;0.50;;;3.30;99.90;;;;;;5060870;28;20465;-73
2023/03/06 02:13:45;;;;;;;4.38;0.70;;;3.30;99.90;;;;;;5061443;28;20414;-73
2023/03/06 02:16:12;;;;;;;2.05;0.60;;;3.30;99.90;;;;;;5047806;28;20329;-73
2023/03/06 02:18:40;;;;;;;2.83;0.60;;;3.30;99.90;;;;;;5023246;28;20238;-74
2023/03/06 02:21:08;;;;;;;1.58;0.70;;;3.30;99.90;;;;;;5028186;28;20559;-73
2023/03/06 02:24:00;;;;;;;0.95;0.38;;;3.30;99.90;;;;;;5027589;28;20041;-73
2023/03/06 02:26:27;;;;;;;3.42;0.60;;;3.30;99.90;;;;;;5028974;28;20427;-73
2023/03/06 02:28:53;;;;;;;2.10;0.90;;;3.30;99.90;;;;;;5027660;28;20518;-73
2023/03/06 02:31:32;;;;;;;1.08;0.47;;;3.30;99.90;;;;;;5060740;28;20046;-73
2023/03/06 02:34:03;;;;;;;2.65;0.40;;;3.30;99.90;;;;;;5014211;28;20044;-73
2023/03/06 02:36:32;;;;;;;1.45;0.60;;;3.30;99.90;;;;;;5045059;28;20057;-73
2023/03/06 02:38:58;;;;;;;0.75;0.50;;;3.30;99.90;;;;;;5063373;28;20056;-73
2023/03/06 02:41:24;;;;;;;0.98;0.43;;;3.30;99.90;;;;;;5060792;28;20052;-73
2023/03/06 02:43:51;;;;;;;1.42;0.75;;;3.30;99.90;;;;;;5060727;28;20045;-73
2023/03/06 02:46:17;;;;;;;2.45;0.20;;;3.30;99.90;;;;;;5046885;28;20037;-73
2023/03/06 02:48:43;;;;;;;1.10;0.52;;;3.30;99.90;;;;;;5059970;28;20538;-73
2023/03/06 02:51:09;;;;;;;1.48;0.70;;;3.30;99.90;;;;;;5019394;28;20095;-74
2023/03/06 02:53:34;;;;;;;2.38;0.82;;;3.20;99.90;;;;;;5062580;28;20437;-73
2023/03/06 02:56:00;;;;;;;0.93;0.50;;;3.20;99.90;;;;;;5026955;28;20520;-73
2023/03/06 02:58:26;;;;;;;0.70;0.30;;;3.20;99.90;;;;;;5028585;28;20076;-73
2023/03/06 03:00:52;;;;;;;0.80;0.38;;;3.20;99.90;;;;;;5027552;28;20072;-73
2023/03/06 03:03:17;;;;;;;2.63;0.70;;;3.20;99.90;;;;;;5026789;28;20376;-73
2023/03/06 03:05:43;;;;;;;0.60;0.30;;;3.20;99.90;;;;;;5063470;28;20041;-73
2023/03/06 03:08:09;;;;;;;0.77;0.40;;;3.20;99.90;;;;;;5059893;28;20123;-73
2023/03/06 03:10:34;;;;;;;1.75;0.60;;;3.20;99.90;;;;;;5027344;28;20531;-73
2023/03/06 03:13:01;;;;;;;2.40;0.40;;;3.20;99.90;;;;;;5060629;28;20037;-73
2023/03/06 03:15:27;;;;;;;1.83;0.60;;;3.30;99.90;;;;;;5029436;28;20533;-73
2023/03/06 03:17:53;;;;;;;5.93;0.57;;;3.30;99.90;;;;;;5031495;28;20037;-73
2023/03/06 03:20:21;;;;;;;0.93;0.40;;;3.30;99.90;;;;;;5026418;28;20048;-73
2023/03/06 03:22:52;;;;;;;0.75;0.47;;;3.30;99.90;;;;;;5043961;28;20041;-74
2023/03/06 03:25:18;;;;;;;0.82;0.40;;;3.30;99.90;;;;;;5059889;28;20299;-73
2023/03/06 03:27:44;;;;;;;1.15;0.47;;;3.30;99.90;;;;;;5023461;28;20029;-73
2023/03/06 03:30:10;;;;;;;1.45;0.70;;;3.30;99.90;;;;;;5028988;28;20080;-73
2023/03/06 03:32:36;;;;;;;5.03;0.40;;;3.30;99.90;;;;;;5020688;28;20513;-73
2023/03/06 03:35:03;;;;;;;0.55;0.38;;;3.30;99.90;;;;;;5053787;28;20125;-73
2023/03/06 03:37:29;;;;;;;0.63;0.32;;;3.20;99.90;;;;;;5060054;28;20152;-73
2023/03/06 03:39:55;;;;;;;0.73;0.47;;;3.20;99.90;;;;;;5026425;28;20529;-73
2023/03/06 03:42:21;;;;;;;1.10;0.40;;;3.10;99.90;;;;;;5025491;28;20529;-73
2023/03/06 03:44:47;;;;;;;1.70;0.88;;;3.10;99.90;;;;;;5029052;28;20037;-73
2023/03/06 03:47:12;;;;;;;0.45;0.25;;;3.00;99.90;;;;;;5028585;28;20053;-73
2023/03/06 03:49:38;;;;;;;1.23;0.60;;;2.90;99.90;;;;;;5026884;28;20045;-73
2023/03/06 03:52:04;;;;;;;0.60;0.40;;;2.80;99.90;;;;;;5058124;28;20045;-73
2023/03/06 03:54:29;;;;;;;0.60;0.35;;;2.80;99.90;;;;;;5055724;28;20091;-73
2023/03/06 03:56:55;;;;;;;1.20;0.40;;;2.80;99.90;;;;;;5056878;28;20111;-73
2023/03/06 03:59:20;;;;;;;0.20;0.20;;;2.70;99.90;;;;;;5043212;28;20110;-73
2023/03/06 04:01:46;;;;;;;0.63;0.40;;;2.70;99.90;;;;;;5025642;28;20038;-73
2023/03/06 04:04:12;;;;;;;3.22;0.50;;;2.70;99.90;;;;;;5009465;28;20036;-73
2023/03/06 04:06:38;;;;;;;0.60;0.17;;;2.60;99.90;;;;;;5027332;28;20388;-73
2023/03/06 04:09:04;;;;;;;0.13;0.13;;;2.70;99.90;;;;;;5061898;28;20124;-73
2023/03/06 04:11:30;;;;;;;0.10;0.10;;;2.60;99.90;;;;;;5022723;28;20103;-73
2023/03/06 04:13:55;;;;;;;0.47;0.30;;;2.60;99.90;;;;;;5062102;28;20053;-73
2023/03/06 04:16:21;;;;;;;0.63;0.30;;;2.60;99.90;;;;;;5045756;28;20037;-73
2023/03/06 04:18:46;;;;;;;0.52;0.32;;;2.60;99.90;;;;;;5026018;28;20113;-73
2023/03/06 04:21:13;;;;;;;0.70;0.40;;;2.60;99.90;;;;;;5025582;28;20064;-73
2023/03/06 04:23:38;;;;;;;0.30;0.15;;;2.60;99.90;;;;;;5061522;28;20048;-73
2023/03/06 04:26:04;;;;;;;0.40;0.20;;;2.60;99.90;;;;;;5010005;28;20042;-73
2023/03/06 04:28:30;;;;;;;0.22;0.20;;;2.60;99.90;;;;;;5044900;28;20055;-73
2023/03/06 04:30:55;;;;;;;0.73;0.40;;;2.60;99.90;;;;;;5060136;28;20127;-73
2023/03/06 04:33:21;;;;;;;0.98;0.40;;;2.60;99.90;;;;;;5043455;28;20122;-73
2023/03/06 04:35:47;;;;;;;0.68;0.20;;;2.60;99.90;;;;;;5026905;28;20137;-73
2023/03/06 04:38:12;;;;;;;1.40;0.60;;;2.60;99.90;;;;;;5057404;28;20486;-73
2023/03/06 04:40:38;;;;;;;0.75;0.40;;;2.60;99.90;;;;;;5024418;28;20045;-73
2023/03/06 04:43:04;;;;;;;0.65;0.25;;;2.70;99.90;;;;;;5044066;28;20052;-73
2023/03/06 04:45:31;;;;;;;0.50;0.20;;;2.70;99.90;;;;;;5011313;28;20510;-73
2023/03/06 04:47:57;;;;;;;0.82;0.30;;;2.70;99.90;;;;;;5027353;28;20125;-73
2023/03/06 04:50:24;;;;;;;0.22;0.22;;;2.70;99.90;;;;;;5024300;28;20059;-73
2023/03/06 04:52:50;;;;;;;0.93;0.30;;;2.70;99.90;;;;;;5025004;28;20522;-73
2023/03/06 04:55:17;;;;;;;0.63;0.30;;;2.70;99.90;;;;;;5008882;28;20029;-73
2023/03/06 04:57:44;;;;;;;0.50;0.30;;;2.70;99.90;;;;;;5012126;28;20041;-73
2023/03/06 05:00:23;;;;;;;1.02;0.45;;;2.70;99.90;;;;;;5043445;28;20479;-73
2023/03/06 05:02:50;;;;;;;0.30;0.20;;;2.70;99.90;;;;;;5006956;28;20041;-73
2023/03/06 05:05:16;;;;;;;1.08;0.55;;;2.70;99.90;;;;;;5027391;28;20042;-73
2023/03/06 05:07:42;;;;;;;1.20;0.40;;;2.70;99.90;;;;;;5027376;28;20487;-73
2023/03/06 05:10:12;;;;;;;0.82;0.30;;;2.80;99.90;;;;;;5060529;28;20036;-73
2023/03/06 05:12:38;;;;;;;0.70;0.40;;;2.80;99.90;;;;;;5011961;28;20449;-73
2023/03/06 05:15:05;;;;;;;1.20;0.50;;;2.80;99.90;;;;;;5058012;28;20045;-73
2023/03/06 05:17:31;;;;;;;0.80;0.45;;;2.90;99.90;;;;;;5027192;28;20049;-73
2023/03/06 05:19:57;;;;;;;3.05;0.60;;;2.90;99.90;;;;;;5059710;28;20116;-73
2023/03/06 05:22:23;;;;;;;1.13;0.50;;;2.80;99.90;;;;;;5027020;28;20094;-73
2023/03/06 05:24:48;;;;;;;1.48;0.55;;;2.80;99.90;;;;;;5025950;28;20041;-73
2023/03/06 05:27:14;;;;;;;1.05;0.55;;;2.80;99.90;;;;;;5022357;28;20418;-73
2023/03/06 05:29:40;;;;;;;0.52;0.35;;;2.70;99.90;;;;;;5026666;28;20331;-73
2023/03/06 05:32:05;;;;;;;3.05;0.57;;;2.70;99.90;;;;;;5058756;28;20384;-73
2023/03/06 05:34:31;;;;;;;1.70;0.50;;;2.70;99.90;;;;;;5060774;28;20487;-73
2023/03/06 05:36:57;;;;;;;1.35;0.60;;;2.70;99.90;;;;;;5058875;28;20278;-73
2023/03/06 05:39:22;;;;;;;1.25;0.45;;;2.60;99.90;;;;;;5059438;28;20041;-73
2023/03/06 05:41:48;;;;;;;1.10;0.70;;;2.60;99.90;;;;;;5009246;28;20041;-73
2023/03/06 05:44:13;;;;;;;0.93;0.40;;;2.60;99.90;;;;;;5027749;28;20033;-73
2023/03/06 05:46:39;;;;;;;0.50;0.38;;;2.60;99.90;;;;;;5028122;28;20041;-73
2023/03/06 05:49:05;;;;;;;1.02;0.70;;;2.60;99.90;;;;;;5030802;28;20051;-73
2023/03/06 05:51:30;;;;;;;0.95;0.50;;;2.70;99.90;;;;;;5063513;28;20222;-73
2023/03/06 05:53:56;;;;;;;1.02;0.60;;;2.70;99.90;;;;;;5063729;28;20115;-73
2023/03/06 05:56:21;;;;;;;1.10;0.55;;;2.70;99.90;;;;;;5029060;28;20048;-73
2023/03/06 05:58:48;;;;;;;1.02;0.60;;;2.70;99.90;;;;;;5031766;28;20546;-73
2023/03/06 06:01:16;;;;;;;1.10;0.57;;;2.70;99.90;;;;;;5030784;28;20049;-73
2023/03/06 06:03:42;;;;;;;3.13;0.52;;;2.70;99.90;;;;;;5045852;28;20446;-73
2023/03/06 06:06:10;;;;;;;0.52;0.30;;;2.60;99.90;;;;;;5063192;28;20045;-73
2023/03/06 06:08:36;;;;;;;3.35;0.75;;;2.70;99.90;;;;;;5047571;28;20033;-73
2023/03/06 06:11:04;;;;;;;2.20;0.60;;;2.70;99.90;;;;;;5062549;28;20449;-73
2023/03/06 06:13:30;;;;;;;0.95;0.65;;;2.70;99.90;;;;;;5014612;28;20064;-73
2023/03/06 06:15:56;;;;;;;1.17;0.50;;;2.70;99.90;;;;;;5031074;28;20064;-73
2023/03/06 06:18:22;;;;;;;1.35;0.50;;;2.70;99.90;;;;;;5029084;28;20565;-73
2023/03/06 06:20:47;;;;;;;1.48;0.70;;;2.60;99.90;;;;;;5044893;28;20099;-73
2023/03/06 06:23:13;;;;;;;1.05;0.52;;;2.60;99.90;;;;;;5031428;28;20064;-73
2023/03/06 06:25:39;;;;;;;1.63;0.65;;;2.60;99.90;;;;;;5013309;28;20410;-73
2023/03/06 06:28:05;;;;;;;1.23;0.45;;;2.60;99.90;;;;;;5062170;28;20029;-73
2023/03/06 06:30:32;;;;;;;1.40;0.60;;;2.60;99.90;;;;;;5046034;28;20469;-73
2023/03/06 06:32:58;;;;;;;1.48;0.43;;;2.60;99.90;;;;;;5009218;28;20542;-73
2023/03/06 06:35:24;;;;;;;1.27;0.60;;;2.50;99.90;;;;;;5028202;28;20298;-73
2023/03/06 06:37:50;;;;;;;3.17;0.57;;;2.50;99.90;;;;;;5013213;28;20053;-73
2023/03/06 06:40:16;;;;;;;1.02;0.47;;;2.60;99.90;;;;;;5062422;28;20033;-73
2023/03/06 06:42:42;;;;;;;1.67;0.52;;;2.50;99.90;;;;;;5013967;28;20049;-73
2023/03/06 06:45:11;;;;;;;1.15;0.40;;;2.50;99.90;;;;;;5056247;28;20041;-73
2023/03/06 06:47:40;;;;;;;1.48;0.50;;;2.50;99.90;;;;;;5038348;28;20029;-74
2023/03/06 06:50:07;;;;;;;0.82;0.40;;;2.50;99.90;;;;;;5024636;28;20059;-73
2023/03/06 06:52:33;;;;;;;0.50;0.30;;;2.50;99.90;;;;;;5025981;28;20041;-73
2023/03/06 06:54:58;;;;;;;0.73;0.50;;;2.50;99.90;;;;;;5006195;28;20406;-73
2023/03/06 06:57:24;;;;;;;2.42;0.50;;;2.50;99.90;;;;;;5025084;28;20030;-74
2023/03/06 06:59:50;;;;;;;1.48;0.60;;;2.40;99.90;;;;;;5025008;28;20069;-73
2023/03/06 07:02:16;;;;;;;1.33;0.50;;;2.40;99.90;;;;;;5023950;28;20038;-73
2023/03/06 07:04:42;;;;;;;0.93;0.50;;;2.40;99.90;;;;;;5022131;28;20147;-73
2023/03/06 07:07:08;;;;;;;1.20;0.47;;;2.40;99.90;;;;;;5026048;28;20029;-73
2023/03/06 07:09:33;;;;;;;1.27;0.45;;;2.40;99.90;;;;;;5021343;28;20037;-73
2023/03/06 07:11:59;;;;;;;2.58;0.63;;;2.30;99.90;;;;;;5058156;28;20229;-73
2023/03/06 07:14:25;;;;;;;0.80;0.43;;;2.40;99.90;;;;;;5022868;28;20463;-74
2023/03/06 07:16:50;;;;;;;1.92;0.80;;;2.30;99.90;;;;;;5058461;28;20760;-76
2023/03/06 07:19:16;;;;;;;2.08;0.90;;;2.30;99.90;;;;;;5057594;28;20702;-74
2023/03/06 07:21:41;;;;;;;1.55;0.70;;;2.30;99.90;;;;;;5024322;28;20396;-73
2023/03/06 07:24:07;;;;;;;1.33;0.45;;;2.30;99.90;;;;;;5025459;28;20039;-73
2023/03/06 07:26:33;;;;;;;1.88;0.63;;;2.30;99.90;;;;;;5023087;28;20434;-73
2023/03/06 07:28:58;;;;;;;0.40;0.28;;;2.30;99.90;;;;;;5023434;28;20045;-73
2023/03/06 07:31:25;;;;;;;1.40;0.70;;;2.30;99.90;;;;;;5008237;28;20426;-72
2023/03/06 07:33:52;;;;;;;1.25;0.40;;;2.20;99.90;;;;;;5008936;28;20045;-73
2023/03/06 07:36:18;;;;;;;1.65;0.73;;;2.20;99.90;;;;;;5002137;28;20565;-73
2023/03/06 07:38:44;;;;;;;2.53;0.80;;;2.30;99.90;;;;;;5016110;28;20526;-73
2023/03/06 07:41:12;;;;;;;0.95;0.65;;;2.30;99.90;;;;;;5015523;28;20057;-73
2023/03/06 07:43:43;;;;;;;1.95;0.55;;;2.30;99.90;;;;;;5009050;28;20034;-73
2023/03/06 07:46:09;;;;;;;1.13;0.40;;;2.30;99.90;;;;;;5023595;28;20398;-73
2023/03/06 07:48:39;;;;;;;1.42;0.60;;;2.30;99.90;;;;;;5061283;28;20516;-73
2023/03/06 07:51:16;;;;;;;1.50;0.50;;;2.30;99.90;;;;;;5057020;28;20041;-73
2023/03/06 07:53:42;;;;;;;1.00;0.50;;;2.30;99.90;;;;;;5022920;28;20045;-73
2023/03/06 07:56:08;;;;;;;1.60;0.57;;;2.30;99.90;;;;;;5020103;28;20040;-73
2023/03/06 07:58:39;;;;;;;1.70;0.60;;;2.30;99.90;;;;;;5024204;28;20518;-73
2023/03/06 08:01:06;;;;;;;3.65;0.75;;;2.30;99.90;;;;;;5022092;28;20120;-73
2023/03/06 08:03:32;;;;;;;0.80;0.40;;;2.30;99.90;;;;;;5023601;28;20040;-73
2023/03/06 08:06:21;;;;;;;1.25;0.73;;;2.40;99.90;;;;;;5022103;28;20079;-73
2023/03/06 08:08:48;;;;;;;0.98;0.38;;;2.30;99.90;;;;;;5056178;28;20037;-73
2023/03/06 08:11:16;;;;;;;2.15;0.63;;;2.40;99.90;;;;;;5038395;28;20034;-73
2023/03/06 08:13:42;;;;;;;2.58;0.68;;;2.50;99.90;;;;;;5022921;28;20059;-73
2023/03/06 08:16:09;;;;;;;0.77;0.40;;;2.50;99.90;;;;;;5056313;28;20438;-73
2023/03/06 08:18:34;;;;;;;1.27;0.60;;;2.50;99.90;;;;;;5055640;28;20046;-73
2023/03/06 08:21:02;;;;;;;1.00;0.40;;;2.60;99.90;;;;;;5004516;28;20053;-73
2023/03/06 08:23:28;;;;;;;1.45;0.50;;;2.70;99.90;;;;;;5053929;28;20168;-73
2023/03/06 08:25:58;;;;;;;5.78;1.13;;;2.70;99.90;;;;;;5019180;28;20060;-73
2023/03/06 08:28:24;;;;;;;1.35;0.30;;;2.80;99.90;;;;;;5036700;28;20521;-73
2023/03/06 08:30:49;;;;;;;0.57;0.40;;;2.90;99.90;;;;;;5048366;28;20077;-74
2023/03/06 08:33:15;;;;;;;0.88;0.30;;;3.00;99.90;;;;;;5037954;28;20083;-73
2023/03/06 08:35:41;;;;;;;1.25;0.40;;;3.00;99.90;;;;;;5007399;28;20131;-73
2023/03/06 08:38:06;;;;;;;1.50;0.52;;;3.00;99.90;;;;;;5020780;28;20038;-74
2023/03/06 08:40:32;;;;;;;0.95;0.40;;;3.00;99.90;;;;;;5052018;28;20124;-73
2023/03/06 08:42:57;;;;;;;1.02;0.40;;;3.10;99.90;;;;;;5023883;28;20660;-73
2023/03/06 08:45:23;;;;;;;0.35;0.20;;;3.10;99.90;;;;;;5056416;28;20517;-73
2023/03/06 08:47:48;;;;;;;1.20;0.35;;;3.10;99.90;;;;;;5022512;28;20073;-73
2023/03/06 08:50:14;;;;;;;1.65;0.70;;;3.10;99.90;;;;;;5019393;28;20045;-73
2023/03/06 08:52:40;;;;;;;0.90;0.40;;;3.10;99.90;;;;;;5019952;28;20045;-73
2023/03/06 08:55:06;;;;;;;13.65;0.93;;;3.10;99.90;;;;;;5021857;28;20041;-73
2023/03/06 08:57:31;;;;;;;2.42;0.32;;;3.10;99.90;;;;;;5036078;28;20077;-73
2023/03/06 08:59:57;;;;;;;1.05;0.57;;;3.20;99.90;;;;;;5024067;28;20163;-73
2023/03/06 09:02:22;;;;;;;1.20;0.40;;;3.20;99.90;;;;;;5022505;28;20399;-73
2023/03/06 09:04:48;;;;;;;1.35;0.40;;;3.30;99.90;;;;;;5019541;28;20037;-74
2023/03/06 09:07:13;;;;;;;0.85;0.28;;;3.30;99.90;;;;;;5022361;28;20407;-74
2023/03/06 09:09:39;;;;;;;0.55;0.30;;;3.40;99.90;;;;;;5017821;28;20033;-73
2023/03/06 09:12:05;;;;;;;0.45;0.20;;;3.40;99.90;;;;;;5068898;28;20056;-73
2023/03/06 09:14:31;;;;;;;3.22;0.10;;;3.50;99.90;;;;;;5047366;28;20056;-73
2023/03/06 09:16:56;;;;;;;0.40;0.10;;;3.50;99.90;;;;;;5053214;28;20037;-73
2023/03/06 09:19:22;;;;;;;0.63;0.28;;;3.50;99.90;;;;;;5016255;28;20418;-73
2023/03/06 09:21:48;;;;;;;2.50;0.35;;;3.50;99.90;;;;;;5011588;28;20052;-73
2023/03/06 09:24:13;;;;;;;1.02;0.20;;;3.50;99.90;;;;;;5013587;28;20037;-74
2023/03/06 09:26:39;;;;;;;1.10;0.35;;;3.60;99.90;;;;;;5048744;28;20095;-73
2023/03/06 09:29:06;;;;;;;1.17;0.43;;;3.60;99.90;;;;;;5010999;28;20217;-73
2023/03/06 09:31:31;;;;;;;0.60;0.30;;;3.60;99.90;;;;;;5011925;28;20045;-73
2023/03/06 09:33:57;;;;;;;1.10;0.30;;;3.70;99.90;;;;;;5017799;28;21608;-73
2023/03/06 09:36:23;;;;;;;0.93;0.35;;;3.70;99.90;;;;;;5013457;28;20051;-73
2023/03/06 09:38:49;;;;;;;0.52;0.40;;;3.80;99.90;;;;;;5050375;28;20598;-73
2023/03/06 09:41:25;;;;;;;2.35;0.35;;;3.90;99.90;;;;;;5015601;28;20107;-73
2023/03/06 09:44:04;;;;;;;1.33;0.63;;;3.90;99.90;;;;;;5043932;28;20045;-73
2023/03/06 09:46:35;;;;;;;0.30;0.20;;;3.90;99.90;;;;;;5029310;28;20479;-73
2023/03/06 09:49:21;;;;;;;1.25;0.50;;;4.00;99.90;;;;;;5018238;28;20033;-73
2023/03/06 09:52:14;;;;;;;1.33;0.50;;;3.90;99.90;;;;;;5017620;28;20142;-73
2023/03/06 09:54:55;;;;;;;0.95;0.55;;;4.00;99.90;;;;;;5012893;28;20057;-73
2023/03/06 09:57:27;;;;;;;0.73;0.50;;;4.00;99.90;;;;;;5018822;28;20072;-73
2023/03/06 10:00:01;;;;;;;2.25;0.30;;;4.00;99.90;;;;;;5016825;28;20037;-73
2023/03/06 10:02:40;;;;;;;0.55;0.30;;;4.00;99.90;;;;;;5042622;28;20069;-73
2023/03/06 10:05:12;;;;;;;0.30;0.17;;;4.00;99.90;;;;;;5049723;28;20633;-73
2023/03/06 10:08:18;;;;;;;0.32;0.20;;;4.00;99.90;;;;;;5012007;28;20072;-73
2023/03/06 10:10:49;;;;;;;3.17;0.47;;;4.00;99.90;;;;;;5050435;28;20397;-73
2023/03/06 10:13:23;;;;;;;0.75;0.15;;;4.00;99.90;;;;;;5050328;28;20129;-73
2023/03/06 10:15:50;;;;;;;0.90;0.40;;;4.00;99.90;;;;;;5034601;28;20037;-73
2023/03/06 10:18:17;;;;;;;0.63;0.30;;;4.00;99.90;;;;;;5000377;28;20037;-73
2023/03/06 10:20:57;;;;;;;0.20;0.10;;;4.00;99.90;;;;;;5040651;28;20026;-73
2023/03/06 10:23:46;;;;;;;0.45;0.10;;;4.00;99.90;;;;;;5011930;28;20040;-73
2023/03/06 10:26:18;;;;;;;0.00;0.00;;;4.00;99.90;;;;;;5010280;28;20044;-73
2023/03/06 10:29:22;;;;;;;1.25;0.17;;;3.90;99.90;;;;;;4998837;28;20050;-77
2023/03/06 10:31:57;;;;;;;1.55;0.20;;;4.00;99.90;;;;;;5002996;28;20423;-78
2023/03/06 10:34:29;;;;;;;0.30;0.10;;;4.00;99.90;;;;;;5026742;28;20069;-73
2023/03/06 10:37:01;;;;;;;0.30;0.13;;;3.90;99.90;;;;;;5017218;28;20557;-73
2023/03/06 10:39:28;;;;;;;0.10;0.03;;;4.00;99.90;;;;;;5015241;28;20056;-74
2023/03/06 10:41:54;;;;;;;0.15;0.10;;;4.00;99.90;;;;;;5020017;28;20041;-74
2023/03/06 10:44:22;;;;;;;1.00;0.28;;;4.00;99.90;;;;;;5015212;28;20045;-74
2023/03/06 10:46:50;;;;;;;0.55;0.10;;;4.10;99.90;;;;;;5019170;28;20388;-73
2023/03/06 10:49:35;;;;;;;0.00;0.00;;;4.20;99.90;;;;;;5045936;28;20041;-74
2023/03/06 10:52:03;;;;;;;0.10;0.10;;;4.20;99.90;;;;;;5002285;28;20688;-74
2023/03/06 10:54:31;;;;;;;1.75;0.20;;;4.30;99.90;;;;;;5037841;28;20393;-73
2023/03/06 10:56:57;;;;;;;0.40;0.10;;;4.30;99.90;;;;;;5056234;28;20041;-73
2023/03/06 10:59:27;;;;;;;0.00;0.00;;;4.30;99.90;;;;;;5056865;28;20067;-74
2023/03/06 11:01:57;;;;;;;1.65;0.10;;;4.30;99.90;;;;;;5006688;28;20534;-74
2023/03/06 11:04:30;;;;;;;2.35;1.10;;;4.40;99.90;;;;;;5035051;28;20115;-74
2023/03/06 11:07:05;;;;;;;0.50;0.28;;;4.40;99.90;;;;;;5005090;28;20061;-73
2023/03/06 11:09:32;;;;;;;0.13;0.13;;;4.40;99.90;;;;;;5037010;28;20116;-74
2023/03/06 11:12:25;;;;;;;0.40;0.22;;;4.40;99.90;;;;;;5019173;28;20045;-74
2023/03/06 11:15:22;;;;;;;0.05;0.00;;;4.50;99.90;;;;;;5035249;28;20709;-80
2023/03/06 11:17:47;;;;;;;;;;;4.50;99.90;;;;;;5025162;28;20064;-73
2023/03/06 11:20:31;;;;;;;0.20;0.20;;;4.60;99.90;;;;;;5055723;28;19917;-74
2023/03/06 11:23:05;;;;;;;1.33;0.20;;;4.70;99.90;;;;;;5022363;28;20057;-74
2023/03/06 11:25:47;;;;;;;0.17;0.10;;;4.80;99.90;;;;;;5053635;28;20045;-74
2023/03/06 11:28:21;;;;;;;0.22;0.20;;;4.90;99.90;;;;;;5030292;28;20071;-74
2023/03/06 11:31:10;;;;;;;0.80;0.20;;;5.00;99.90;;;;;;5027801;28;20347;-74
2023/03/06 11:33:57;;;;;;;2.70;0.10;;;5.00;99.90;;;;;;5057311;28;20042;-74
2023/03/06 11:36:38;;;;;;;4.20;0.40;;;5.00;99.90;;;;;;5037110;28;20033;-73
2023/03/06 11:39:25;;;;;;;0.20;0.10;;;5.10;99.90;;;;;;5022470;28;20085;-74
2023/03/06 11:41:58;;;;;;;1.13;0.20;;;5.00;99.90;;;;;;5024025;28;20574;-74
2023/03/06 11:44:35;;;;;;;0.13;0.10;;;5.00;99.90;;;;;;5056058;28;20033;-74
2023/03/06 11:47:10;;;;;;;0.20;0.10;;;5.00;99.90;;;;;;5049059;28;20048;-74
2023/03/06 11:49:49;;;;;;;0.30;0.13;;;5.00;99.90;;;;;;5037613;28;20399;-74
2023/03/06 11:52:24;;;;;;;0.20;0.10;;;5.00;99.90;;;;;;5052163;28;20041;-74
2023/03/06 11:54:54;;;;;;;0.20;0.20;;;5.00;99.90;;;;;;5017771;28;20464;-74
2023/03/06 11:57:40;;;;;;;0.10;0.00;;;5.00;99.90;;;;;;5052149;28;20056;-74
2023/03/06 12:00:06;;;;;;;0.00;0.00;;;5.00;99.90;;;;;;5058469;28;20056;-74
2023/03/06 12:02:45;;;;;;;0.40;0.20;;;5.00;99.90;;;;;;5023026;28;20046;-74
2023/03/06 12:05:34;;;;;;;0.35;0.20;;;5.00;99.90;;;;;;5040582;28;20287;-74
2023/03/06 12:08:29;;;;;;;0.00;0.00;;;5.00;99.90;;;;;;5023471;28;20033;-74
2023/03/06 12:11:08;;;;;;;0.57;0.20;;;5.10;99.90;;;;;;5055499;28;20502;-74
2023/03/06 12:14:12;;;;;;;0.70;0.30;;;5.00;99.90;;;;;;5019467;28;20761;-74
2023/03/06 12:17:15;;;;;;;0.28;0.20;;;5.10;99.90;;;;;;5037804;28;20068;-74
2023/03/06 12:19:55;;;;;;;4.78;0.63;;;5.20;99.90;;;;;;5006501;28;20049;-74
2023/03/06 12:22:24;;;;;;;1.60;0.65;;;5.20;99.90;;;;;;5020420;28;20029;-74
2023/03/06 12:25:21;;;;;;;0.70;0.63;;;5.20;99.90;;;;;;5039700;28;20049;-74
2023/03/06 12:28:18;;;;;;;0.45;0.28;;;5.20;99.90;;;;;;5022169;28;20055;-74
2023/03/06 12:31:08;;;;;;;2.20;0.35;;;5.20;99.90;;;;;;5023755;28;20057;-74
2023/03/06 12:33:49;;;;;;;0.85;0.38;;;5.20;99.90;;;;;;5054306;28;20037;-74
2023/03/06 12:36:28;;;;;;;0.85;0.30;;;5.30;99.90;;;;;;5005140;28;20095;-74
2023/03/06 12:39:28;;;;;;;0.10;0.10;;;5.20;99.90;;;;;;5054882;28;20025;-74
2023/03/06 12:42:24;;;;;;;0.30;0.20;;;5.30;99.90;;;;;;5025036;28;20041;-74
2023/03/06 12:45:15;;;;;;;0.10;0.10;;;5.40;99.90;;;;;;5056527;28;20115;-74
2023/03/06 12:47:43;;;;;;;0.32;0.20;;;5.40;99.90;;;;;;5039373;28;20044;-74
2023/03/06 12:50:25;;;;;;;0.55;0.20;;;5.40;99.90;;;;;;5005794;28;20048;-74
2023/03/06 12:52:53;;;;;;;1.20;0.30;;;5.50;99.90;;;;;;5023276;28;20045;-74
2023/03/06 12:55:20;;;;;;;0.40;0.20;;;5.50;99.90;;;;;;5021199;28;20048;-74
2023/03/06 12:57:47;;;;;;;19.13;6.03;;;5.50;99.90;;;;;;5008195;28;20495;-74
2023/03/06 13:00:31;;;;;;;3.92;1.45;;;5.50;99.90;;;;;;5025774;28;20041;-74
2023/03/06 13:03:08;;;;;;;4.95;1.33;;;5.50;99.90;;;;;;5054823;28;20037;-74
2023/03/06 13:05:36;;;;;;;2.00;0.85;;;5.60;99.90;;;;;;5020203;28;20037;-74
2023/03/06 13:08:21;;;;;;;1.58;0.82;;;5.70;99.90;;;;;;5021283;28;20044;-74
2023/03/06 13:11:21;;;;;;;11.93;4.15;;;5.80;99.90;;;;;;5033635;28;20318;-76